sensor_id;sensor_type;location;lat;lon;timestamp;P1;durP1;ratioP1;P2;durP2;ratioP2
44358;SDS011;30077;52.474;13.326;2024-03-02T00:00:53;93.80;;;50.63;;
44358;SDS011;30077;52.474;13.326;2024-03-02T00:10:57;93.20;;;51.03;;
44358;SDS011;30077;52.474;13.326;2024-03-02T00:20:59;94.57;;;50.13;;
44358;SDS011;30077;52.474;13.326;2024-03-02T00:31:07;98.78;;;51.53;;
44358;SDS011;30077;52.474;13.326;2024-03-02T00:41:21;172.48;;;92.55;;
44358;SDS011;30077;52.474;13.326;2024-03-02T00:51:42;100.85;;;54.25;;
44358;SDS011;30077;52.474;13.326;2024-03-02T01:01:51;93.00;;;50.17;;
44358;SDS011;30077;52.474;13.326;2024-03-02T01:11:52;102.50;;;53.13;;
44358;SDS011;30077;52.474;13.326;2024-03-02T01:21:52;105.35;;;55.95;;
44358;SDS011;30077;52.474;13.326;2024-03-02T01:31:54;109.00;;;56.65;;
44358;SDS011;30077;52.474;13.326;2024-03-02T01:41:55;106.35;;;56.15;;
44358;SDS011;30077;52.474;13.326;2024-03-02T01:51:56;110.28;;;58.65;;
44358;SDS011;30077;52.474;13.326;2024-03-02T02:01:56;117.68;;;58.60;;
44358;SDS011;30077;52.474;13.326;2024-03-02T02:11:58;113.18;;;59.78;;
44358;SDS011;30077;52.474;13.326;2024-03-02T02:21:59;115.55;;;60.00;;
44358;SDS011;30077;52.474;13.326;2024-03-02T02:32:00;110.90;;;59.57;;
44358;SDS011;30077;52.474;13.326;2024-03-02T02:42:01;116.25;;;59.95;;
44358;SDS011;30077;52.474;13.326;2024-03-02T02:52:04;109.80;;;59.40;;
44358;SDS011;30077;52.474;13.326;2024-03-02T03:02:04;107.80;;;58.25;;
44358;SDS011;30077;52.474;13.326;2024-03-02T03:12:06;105.53;;;55.80;;
44358;SDS011;30077;52.474;13.326;2024-03-02T03:22:07;107.80;;;56.97;;
44358;SDS011;30077;52.474;13.326;2024-03-02T03:32:08;102.28;;;54.88;;
44358;SDS011;30077;52.474;13.326;2024-03-02T03:42:08;100.68;;;53.35;;
44358;SDS011;30077;52.474;13.326;2024-03-02T03:52:09;91.83;;;52.17;;
44358;SDS011;30077;52.474;13.326;2024-03-02T04:02:10;92.37;;;51.10;;
44358;SDS011;30077;52.474;13.326;2024-03-02T04:12:12;100.30;;;51.88;;
44358;SDS011;30077;52.474;13.326;2024-03-02T04:22:13;90.00;;;49.17;;
44358;SDS011;30077;52.474;13.326;2024-03-02T04:32:14;89.43;;;48.63;;
44358;SDS011;30077;52.474;13.326;2024-03-02T04:42:14;90.90;;;51.30;;
44358;SDS011;30077;52.474;13.326;2024-03-02T04:52:15;96.70;;;51.22;;
44358;SDS011;30077;52.474;13.326;2024-03-02T05:02:16;95.97;;;52.47;;
44358;SDS011;30077;52.474;13.326;2024-03-02T05:12:17;87.03;;;48.20;;
44358;SDS011;30077;52.474;13.326;2024-03-02T05:22:38;89.97;;;49.28;;
44358;SDS011;30077;52.474;13.326;2024-03-02T05:32:39;95.25;;;50.78;;
44358;SDS011;30077;52.474;13.326;2024-03-02T05:42:40;96.00;;;52.27;;
44358;SDS011;30077;52.474;13.326;2024-03-02T05:52:41;98.40;;;55.25;;
44358;SDS011;30077;52.474;13.326;2024-03-02T06:02:43;103.13;;;54.25;;
44358;SDS011;30077;52.474;13.326;2024-03-02T06:12:43;103.27;;;54.37;;
44358;SDS011;30077;52.474;13.326;2024-03-02T06:22:45;103.33;;;53.87;;
44358;SDS011;30077;52.474;13.326;2024-03-02T06:32:46;99.82;;;51.97;;
44358;SDS011;30077;52.474;13.326;2024-03-02T06:42:46;102.63;;;52.77;;
44358;SDS011;30077;52.474;13.326;2024-03-02T06:52:47;102.40;;;52.10;;
44358;SDS011;30077;52.474;13.326;2024-03-02T07:02:48;96.00;;;51.92;;
44358;SDS011;30077;52.474;13.326;2024-03-02T07:12:49;94.57;;;51.25;;
44358;SDS011;30077;52.474;13.326;2024-03-02T07:22:50;97.90;;;51.75;;
44358;SDS011;30077;52.474;13.326;2024-03-02T07:32:51;86.63;;;47.80;;
44358;SDS011;30077;52.474;13.326;2024-03-02T07:42:51;88.90;;;48.03;;
44358;SDS011;30077;52.474;13.326;2024-03-02T07:52:52;87.47;;;46.55;;
44358;SDS011;30077;52.474;13.326;2024-03-02T08:02:53;81.03;;;46.55;;
44358;SDS011;30077;52.474;13.326;2024-03-02T08:12:54;85.78;;;44.83;;
44358;SDS011;30077;52.474;13.326;2024-03-02T08:22:54;82.88;;;45.50;;
44358;SDS011;30077;52.474;13.326;2024-03-02T08:32:55;81.53;;;44.65;;
44358;SDS011;30077;52.474;13.326;2024-03-02T08:42:57;77.65;;;44.33;;
44358;SDS011;30077;52.474;13.326;2024-03-02T08:52:57;89.23;;;47.23;;
44358;SDS011;30077;52.474;13.326;2024-03-02T09:02:58;80.90;;;44.10;;
44358;SDS011;30077;52.474;13.326;2024-03-02T09:12:59;81.53;;;45.17;;
44358;SDS011;30077;52.474;13.326;2024-03-02T09:23:00;83.07;;;43.95;;
44358;SDS011;30077;52.474;13.326;2024-03-02T09:33:01;76.35;;;41.97;;
44358;SDS011;30077;52.474;13.326;2024-03-02T09:43:02;76.07;;;40.80;;
44358;SDS011;30077;52.474;13.326;2024-03-02T09:53:03;65.88;;;39.28;;
44358;SDS011;30077;52.474;13.326;2024-03-02T10:03:09;67.70;;;37.53;;
44358;SDS011;30077;52.474;13.326;2024-03-02T10:13:13;59.85;;;35.30;;
44358;SDS011;30077;52.474;13.326;2024-03-02T10:23:14;56.28;;;32.63;;
44358;SDS011;30077;52.474;13.326;2024-03-02T10:33:17;52.05;;;31.70;;
44358;SDS011;30077;52.474;13.326;2024-03-02T10:43:18;47.63;;;30.05;;
44358;SDS011;30077;52.474;13.326;2024-03-02T10:53:20;48.85;;;28.17;;
44358;SDS011;30077;52.474;13.326;2024-03-02T11:03:20;52.73;;;29.17;;
44358;SDS011;30077;52.474;13.326;2024-03-02T11:13:25;43.88;;;27.70;;
44358;SDS011;30077;52.474;13.326;2024-03-02T11:23:31;41.15;;;24.00;;
44358;SDS011;30077;52.474;13.326;2024-03-02T11:33:33;43.38;;;27.15;;
44358;SDS011;30077;52.474;13.326;2024-03-02T11:43:36;40.23;;;24.20;;
44358;SDS011;30077;52.474;13.326;2024-03-02T11:53:39;39.65;;;24.38;;
44358;SDS011;30077;52.474;13.326;2024-03-02T12:03:40;39.38;;;27.00;;
44358;SDS011;30077;52.474;13.326;2024-03-02T12:13:51;37.47;;;25.20;;
44358;SDS011;30077;52.474;13.326;2024-03-02T12:23:54;41.42;;;26.02;;
44358;SDS011;30077;52.474;13.326;2024-03-02T12:33:56;46.97;;;28.13;;
44358;SDS011;30077;52.474;13.326;2024-03-02T12:43:57;44.92;;;27.50;;
44358;SDS011;30077;52.474;13.326;2024-03-02T12:53:58;45.25;;;28.50;;
44358;SDS011;30077;52.474;13.326;2024-03-02T13:03:59;40.33;;;25.90;;
44358;SDS011;30077;52.474;13.326;2024-03-02T13:14:00;49.97;;;30.80;;
44358;SDS011;30077;52.474;13.326;2024-03-02T13:24:02;39.83;;;24.60;;
44358;SDS011;30077;52.474;13.326;2024-03-02T13:34:03;36.28;;;23.33;;
44358;SDS011;30077;52.474;13.326;2024-03-02T13:44:04;39.03;;;24.40;;
44358;SDS011;30077;52.474;13.326;2024-03-02T13:54:06;40.55;;;25.80;;
44358;SDS011;30077;52.474;13.326;2024-03-02T14:04:07;29.17;;;20.17;;
44358;SDS011;30077;52.474;13.326;2024-03-02T14:14:08;24.70;;;17.13;;
44358;SDS011;30077;52.474;13.326;2024-03-02T14:24:08;31.23;;;18.67;;
44358;SDS011;30077;52.474;13.326;2024-03-02T14:34:09;29.60;;;16.52;;
44358;SDS011;30077;52.474;13.326;2024-03-02T14:44:10;39.38;;;17.30;;
44358;SDS011;30077;52.474;13.326;2024-03-02T14:54:10;28.00;;;16.13;;
44358;SDS011;30077;52.474;13.326;2024-03-02T15:04:11;27.83;;;17.15;;
44358;SDS011;30077;52.474;13.326;2024-03-02T15:14:12;19.95;;;13.65;;
44358;SDS011;30077;52.474;13.326;2024-03-02T15:24:13;35.83;;;20.23;;
44358;SDS011;30077;52.474;13.326;2024-03-02T15:34:14;33.23;;;21.40;;
44358;SDS011;30077;52.474;13.326;2024-03-02T15:44:15;34.85;;;20.45;;
44358;SDS011;30077;52.474;13.326;2024-03-02T15:54:15;35.63;;;20.13;;
44358;SDS011;30077;52.474;13.326;2024-03-02T16:04:16;33.15;;;19.00;;
44358;SDS011;30077;52.474;13.326;2024-03-02T16:14:17;28.40;;;16.07;;
44358;SDS011;30077;52.474;13.326;2024-03-02T16:24:18;28.40;;;14.52;;
44358;SDS011;30077;52.474;13.326;2024-03-02T16:34:19;22.73;;;13.93;;
44358;SDS011;30077;52.474;13.326;2024-03-02T16:44:19;25.67;;;14.77;;
44358;SDS011;30077;52.474;13.326;2024-03-02T16:54:20;27.10;;;16.58;;
44358;SDS011;30077;52.474;13.326;2024-03-02T17:04:21;27.20;;;16.00;;
44358;SDS011;30077;52.474;13.326;2024-03-02T17:14:22;29.67;;;16.67;;
44358;SDS011;30077;52.474;13.326;2024-03-02T17:24:24;31.38;;;18.20;;
44358;SDS011;30077;52.474;13.326;2024-03-02T17:34:25;31.13;;;18.60;;
44358;SDS011;30077;52.474;13.326;2024-03-02T17:44:25;43.75;;;19.83;;
44358;SDS011;30077;52.474;13.326;2024-03-02T17:54:26;32.23;;;19.60;;
44358;SDS011;30077;52.474;13.326;2024-03-02T18:04:27;34.37;;;20.27;;
44358;SDS011;30077;52.474;13.326;2024-03-02T18:14:28;40.50;;;21.17;;
44358;SDS011;30077;52.474;13.326;2024-03-02T18:24:31;44.05;;;22.80;;
44358;SDS011;30077;52.474;13.326;2024-03-02T18:34:32;39.63;;;22.13;;
44358;SDS011;30077;52.474;13.326;2024-03-02T18:44:34;36.58;;;22.38;;
44358;SDS011;30077;52.474;13.326;2024-03-02T18:54:34;41.25;;;24.15;;
44358;SDS011;30077;52.474;13.326;2024-03-02T19:04:36;46.85;;;25.67;;
44358;SDS011;30077;52.474;13.326;2024-03-02T19:14:37;48.08;;;26.58;;
44358;SDS011;30077;52.474;13.326;2024-03-02T19:24:37;47.95;;;26.75;;
44358;SDS011;30077;52.474;13.326;2024-03-02T19:34:40;44.97;;;26.83;;
44358;SDS011;30077;52.474;13.326;2024-03-02T19:44:40;48.33;;;26.08;;
44358;SDS011;30077;52.474;13.326;2024-03-02T19:54:42;45.55;;;25.15;;
44358;SDS011;30077;52.474;13.326;2024-03-02T20:04:43;52.35;;;25.83;;
44358;SDS011;30077;52.474;13.326;2024-03-02T20:14:45;44.97;;;25.95;;
44358;SDS011;30077;52.474;13.326;2024-03-02T20:24:46;42.67;;;24.33;;
44358;SDS011;30077;52.474;13.326;2024-03-02T20:34:51;43.57;;;23.83;;
44358;SDS011;30077;52.474;13.326;2024-03-02T20:44:52;39.85;;;24.27;;
44358;SDS011;30077;52.474;13.326;2024-03-02T20:54:53;43.58;;;25.38;;
44358;SDS011;30077;52.474;13.326;2024-03-02T21:04:54;50.58;;;27.88;;
44358;SDS011;30077;52.474;13.326;2024-03-02T21:14:54;49.72;;;26.92;;
44358;SDS011;30077;52.474;13.326;2024-03-02T21:24:55;47.47;;;27.92;;
44358;SDS011;30077;52.474;13.326;2024-03-02T21:35:00;50.92;;;28.23;;
44358;SDS011;30077;52.474;13.326;2024-03-02T21:45:01;51.13;;;29.90;;
44358;SDS011;30077;52.474;13.326;2024-03-02T21:55:02;52.40;;;30.55;;
44358;SDS011;30077;52.474;13.326;2024-03-02T22:05:03;55.75;;;30.10;;
44358;SDS011;30077;52.474;13.326;2024-03-02T22:15:05;52.03;;;29.15;;
44358;SDS011;30077;52.474;13.326;2024-03-02T22:25:10;48.70;;;28.75;;
44358;SDS011;30077;52.474;13.326;2024-03-02T22:35:11;55.85;;;29.92;;
44358;SDS011;30077;52.474;13.326;2024-03-02T22:45:14;59.08;;;32.33;;
44358;SDS011;30077;52.474;13.326;2024-03-02T22:55:15;59.05;;;32.17;;
44358;SDS011;30077;52.474;13.326;2024-03-02T23:05:16;57.00;;;32.00;;
44358;SDS011;30077;52.474;13.326;2024-03-02T23:15:16;62.73;;;34.00;;
44358;SDS011;30077;52.474;13.326;2024-03-02T23:25:17;56.45;;;30.60;;
44358;SDS011;30077;52.474;13.326;2024-03-02T23:35:18;63.67;;;35.23;;
44358;SDS011;30077;52.474;13.326;2024-03-02T23:45:19;64.63;;;35.83;;
44358;SDS011;30077;52.474;13.326;2024-03-02T23:55:20;71.72;;;36.67;;
